sensor_id;sensor_type;location;lat;lon;timestamp;temperature;humidity
15288;DHT22;7745;48.708;9.026;2023-03-23T05:21:56;12.30;99.90
15288;DHT22;7745;48.708;9.026;2023-03-23T05:24:31;12.30;99.90
15288;DHT22;7745;48.708;9.026;2023-03-23T05:26:58;12.20;99.90
15288;DHT22;7745;48.708;9.026;2023-03-23T05:29:26;12.50;99.90
15288;DHT22;7745;48.708;9.026;2023-03-23T05:31:55;12.30;99.90
15288;DHT22;7745;48.708;9.026;2023-03-23T05:34:25;12.30;99.90
15288;DHT22;7745;48.708;9.026;2023-03-23T05:37:03;12.30;99.90
15288;DHT22;7745;48.708;9.026;2023-03-23T05:39:33;12.30;99.90
15288;DHT22;7745;48.708;9.026;2023-03-23T05:42:00;12.40;99.90
15288;DHT22;7745;48.708;9.026;2023-03-23T05:44:27;12.30;99.90
15288;DHT22;7745;48.708;9.026;2023-03-23T05:47:00;12.30;99.90
15288;DHT22;7745;48.708;9.026;2023-03-23T05:49:51;12.30;99.90
15288;DHT22;7745;48.708;9.026;2023-03-23T05:52:28;12.30;99.90
15288;DHT22;7745;48.708;9.026;2023-03-23T05:57:55;12.30;99.90
15288;DHT22;7745;48.708;9.026;2023-03-23T06:00:45;12.30;99.90
15288;DHT22;7745;48.708;9.026;2023-03-23T06:03:20;12.40;99.90
15288;DHT22;7745;48.708;9.026;2023-03-23T06:05:52;12.30;99.90
15288;DHT22;7745;48.708;9.026;2023-03-23T06:09:03;12.50;99.90
15288;DHT22;7745;48.708;9.026;2023-03-23T06:11:46;12.30;99.90
15288;DHT22;7745;48.708;9.026;2023-03-23T06:14:17;12.60;99.90
15288;DHT22;7745;48.708;9.026;2023-03-23T06:17:13;12.80;99.90
15288;DHT22;7745;48.708;9.026;2023-03-23T06:20:22;12.50;99.90
15288;DHT22;7745;48.708;9.026;2023-03-23T06:22:56;12.70;99.90
15288;DHT22;7745;48.708;9.026;2023-03-23T06:25:32;12.60;99.90
15288;DHT22;7745;48.708;9.026;2023-03-23T06:28:33;12.60;99.90
15288;DHT22;7745;48.708;9.026;2023-03-23T06:31:18;12.60;99.90
15288;DHT22;7745;48.708;9.026;2023-03-23T06:33:46;12.70;99.90
15288;DHT22;7745;48.708;9.026;2023-03-23T06:36:13;12.70;99.90
15288;DHT22;7745;48.708;9.026;2023-03-23T06:38:39;12.70;99.90
15288;DHT22;7745;48.708;9.026;2023-03-23T06:41:08;12.70;99.90
15288;DHT22;7745;48.708;9.026;2023-03-23T06:43:35;12.70;99.90
15288;DHT22;7745;48.708;9.026;2023-03-23T06:46:04;12.90;99.90
15288;DHT22;7745;48.708;9.026;2023-03-23T06:48:31;12.90;99.90
15288;DHT22;7745;48.708;9.026;2023-03-23T06:50:58;13.00;99.90
15288;DHT22;7745;48.708;9.026;2023-03-23T06:53:25;13.10;99.90
15288;DHT22;7745;48.708;9.026;2023-03-23T06:55:52;13.20;99.90
15288;DHT22;7745;48.708;9.026;2023-03-23T06:58:23;13.30;99.90
15288;DHT22;7745;48.708;9.026;2023-03-23T07:00:54;13.50;99.90
15288;DHT22;7745;48.708;9.026;2023-03-23T07:03:22;13.50;99.90
15288;DHT22;7745;48.708;9.026;2023-03-23T07:05:53;13.70;99.90
15288;DHT22;7745;48.708;9.026;2023-03-23T07:08:20;13.50;99.90
15288;DHT22;7745;48.708;9.026;2023-03-23T07:10:51;13.50;99.90
15288;DHT22;7745;48.708;9.026;2023-03-23T08:54:13;14.60;99.90
15288;DHT22;7745;48.708;9.026;2023-03-23T08:56:50;14.70;99.90
15288;DHT22;7745;48.708;9.026;2023-03-23T08:59:47;14.70;99.90
15288;DHT22;7745;48.708;9.026;2023-03-23T10:03:23;15.50;99.90
15288;DHT22;7745;48.708;9.026;2023-03-23T10:06:18;15.80;99.90
15288;DHT22;7745;48.708;9.026;2023-03-23T11:27:21;16.40;99.90
15288;DHT22;7745;48.708;9.026;2023-03-23T11:30:36;16.40;99.90
15288;DHT22;7745;48.708;9.026;2023-03-23T11:33:19;16.50;99.90
15288;DHT22;7745;48.708;9.026;2023-03-23T11:36:27;16.60;99.90
15288;DHT22;7745;48.708;9.026;2023-03-23T11:46:58;16.80;99.90
15288;DHT22;7745;48.708;9.026;2023-03-23T11:49:47;16.90;99.90
15288;DHT22;7745;48.708;9.026;2023-03-23T11:52:25;16.90;99.90
15288;DHT22;7745;48.708;9.026;2023-03-23T12:01:16;16.90;99.90
15288;DHT22;7745;48.708;9.026;2023-03-23T13:18:09;17.70;99.90
15288;DHT22;7745;48.708;9.026;2023-03-23T13:25:25;17.50;99.90
15288;DHT22;7745;48.708;9.026;2023-03-23T13:35:19;17.90;99.90
15288;DHT22;7745;48.708;9.026;2023-03-23T16:17:20;16.20;99.90
15288;DHT22;7745;48.708;9.026;2023-03-23T21:01:05;13.50;99.90
